Time;durP1;ratioP1;P1;durP2;ratioP2;P2;SDS_P1;SDS_P2;PMS_P1;PMS_P2;Temp;Humidity;BMP_temperature;BMP_pressure;BME280_temperature;BME280_humidity;BME280_pressure;Samples;Min_cycle;Max_cycle;Signal;HPM_P1;HPM_P2
2022/01/01 00:01:21;;;;;;;;;;;9.90;99.90;;;;;;5036576;28;19916;-80
2022/01/01 00:03:47;;;;;;;;;;;10.00;99.90;;;;;;5037724;28;19909;-81
2022/01/01 00:06:12;;;;;;;;;;;10.00;99.90;;;;;;5037652;28;19913;-83
2022/01/01 00:08:38;;;;;;;;;;;10.00;99.90;;;;;;5037823;28;20355;-80
2022/01/01 00:11:03;;;;;;;;;;;10.00;99.90;;;;;;5020400;28;20498;-82
2022/01/01 00:13:29;;;;;;;;;;;10.00;99.90;;;;;;5020047;28;19987;-81
2022/01/01 00:15:55;;;;;;;;;;;10.00;99.90;;;;;;5037666;28;19935;-83
2022/01/01 00:18:20;;;;;;;;;;;10.00;99.90;;;;;;5037672;28;19910;-81
2022/01/01 00:20:46;;;;;;;;;;;10.00;99.90;;;;;;5019686;28;19917;-82
2022/01/01 00:23:12;;;;;;;;;;;10.00;99.90;;;;;;5037319;28;19910;-81
2022/01/01 00:25:37;;;;;;;;;;;10.00;99.90;;;;;;5019557;28;19924;-82
2022/01/01 00:28:03;;;;;;;;;;;9.90;99.90;;;;;;5037238;28;20255;-82
2022/01/01 00:30:28;;;;;;;;;;;9.80;99.90;;;;;;5037430;28;19909;-81
2022/01/01 00:32:54;;;;;;;;;;;9.90;99.90;;;;;;5037189;28;19916;-82
2022/01/01 00:35:20;;;;;;;;;;;9.90;99.90;;;;;;5036986;28;20212;-81
2022/01/01 00:37:45;;;;;;;;;;;9.80;99.90;;;;;;5045531;28;19955;-81
2022/01/01 00:40:11;;;;;;;;;;;9.90;99.90;;;;;;5039369;28;19913;-82
2022/01/01 00:42:37;;;;;;;;;;;9.90;99.90;;;;;;5038893;28;19921;-81
2022/01/01 00:45:02;;;;;;;;;;;9.90;99.90;;;;;;5056867;28;19913;-81
2022/01/01 00:47:28;;;;;;;;;;;9.90;99.90;;;;;;5056759;28;19917;-80
2022/01/01 00:49:54;;;;;;;;;;;10.00;99.90;;;;;;5039007;28;20204;-82
2022/01/01 00:52:19;;;;;;;;;;;10.00;99.90;;;;;;5039047;28;19958;-81
2022/01/01 00:54:45;;;;;;;;;;;10.00;99.90;;;;;;5039198;28;19916;-81
2022/01/01 00:57:12;;;;;;;;;;;9.90;99.90;;;;;;5038830;28;19913;-81
2022/01/01 00:59:39;;;;;;;;;;;9.90;99.90;;;;;;5038775;28;19935;-81
2022/01/01 01:02:06;;;;;;;;;;;9.90;99.90;;;;;;5038867;28;19924;-82
2022/01/01 01:04:32;;;;;;;;;;;9.90;99.90;;;;;;5038739;28;19909;-79
2022/01/01 01:06:58;;;;;;;;;;;9.90;99.90;;;;;;5038133;28;19959;-82
2022/01/01 01:09:25;;;;;;;;;;;10.00;99.90;;;;;;5056201;28;19916;-81
2022/01/01 01:11:52;;;;;;;;;;;10.00;99.90;;;;;;5056152;28;19913;-82
2022/01/01 01:14:20;;;;;;;;;;;10.00;99.90;;;;;;5056437;28;19948;-81
2022/01/01 01:16:48;;;;;;;;;;;10.00;99.90;;;;;;5056333;28;19919;-79
2022/01/01 01:19:14;;;;;;;;;;;10.00;99.90;;;;;;5038719;28;19909;-81
2022/01/01 01:21:40;;;;;;;;;;;10.00;99.90;;;;;;5056608;28;19919;-81
2022/01/01 01:24:07;;;;;;;;;;;10.00;99.90;;;;;;5038347;28;20007;-80
2022/01/01 01:26:33;;;;;;;;;;;10.00;99.90;;;;;;5038615;28;20223;-82
2022/01/01 01:29:01;;;;;;;;;;;10.00;99.90;;;;;;5056208;28;19909;-80
2022/01/01 01:31:29;;;;;;;;;;;10.00;99.90;;;;;;5055682;28;19913;-80
2022/01/01 01:33:54;;;;;;;;;;;10.00;99.90;;;;;;5038349;28;19916;-82
2022/01/01 01:36:20;;;;;;;;;;;10.10;99.90;;;;;;5037800;28;20220;-81
2022/01/01 01:38:46;;;;;;;;;;;10.10;99.90;;;;;;5038051;28;19962;-80
2022/01/01 01:41:11;;;;;;;;;;;10.10;99.90;;;;;;5038121;28;19920;-80
2022/01/01 01:43:37;;;;;;;;;;;10.10;99.90;;;;;;5055747;28;20019;-81
2022/01/01 01:46:04;;;;;;;;;;;10.10;99.90;;;;;;5055456;28;19919;-82
2022/01/01 01:48:30;;;;;;;;;;;10.20;99.90;;;;;;5055580;28;19909;-81
2022/01/01 01:50:56;;;;;;;;;;;10.20;99.90;;;;;;5037963;28;20194;-81
2022/01/01 01:53:22;;;;;;;;;;;10.20;99.90;;;;;;5037821;28;20022;-81
2022/01/01 01:55:48;;;;;;;;;;;10.20;99.90;;;;;;5037754;28;19912;-81
2022/01/01 01:58:15;;;;;;;;;;;10.20;99.90;;;;;;5055167;28;19909;-81
2022/01/01 02:01:01;;;;;;;;;;;10.30;99.90;;;;;;5055519;28;19915;-80
2022/01/01 02:03:26;;;;;;;;;;;10.30;99.90;;;;;;5055028;28;19952;-80
2022/01/01 02:05:52;;;;;;;;;;;10.30;99.90;;;;;;5055191;28;20394;-80
2022/01/01 02:08:20;;;;;;;;;;;10.30;99.90;;;;;;5037552;28;19917;-80
2022/01/01 02:10:48;;;;;;;;;;;10.30;99.90;;;;;;5055330;28;19909;-80
2022/01/01 02:13:24;;;;;;;;;;;10.40;99.90;;;;;;5037580;28;19955;-81
2022/01/01 02:18:18;;;;;;;;;;;10.40;99.90;;;;;;5055228;28;19917;-81
2022/01/01 02:20:49;;;;;;;;;;;10.50;99.90;;;;;;5055068;28;19909;-80
2022/01/01 02:23:21;;;;;;;;;;;10.50;99.90;;;;;;5037489;28;19944;-81
2022/01/01 02:25:48;;;;;;;;;;;10.50;99.90;;;;;;5055037;28;20312;-81
2022/01/01 02:28:14;;;;;;;;;;;10.50;99.90;;;;;;5054924;28;19909;-80
2022/01/01 02:30:39;;;;;;;;;;;10.50;99.90;;;;;;5037533;28;19908;-81
2022/01/01 02:33:05;;;;;;;;;;;10.60;99.90;;;;;;5037289;28;20011;-81
2022/01/01 02:35:30;;;;;;;;;;;10.60;99.90;;;;;;5055074;28;20431;-82
2022/01/01 02:37:56;;;;;;;;;;;10.60;99.90;;;;;;5037099;28;19912;-80
2022/01/01 02:40:22;;;;;;;;;;;10.60;99.90;;;;;;5020972;28;19920;-82
2022/01/01 02:42:47;;;;;;;;;;;10.60;99.90;;;;;;5054758;28;20608;-81
2022/01/01 02:45:14;;;;;;;;;;;10.60;99.90;;;;;;5037152;28;19924;-82
2022/01/01 02:47:40;;;;;;;;;;;10.60;99.90;;;;;;5037048;28;19908;-81
2022/01/01 02:50:06;;;;;;;;;;;10.60;99.90;;;;;;5037138;28;19912;-81
2022/01/01 02:52:31;;;;;;;;;;;10.60;99.90;;;;;;5037518;28;20350;-83
2022/01/01 02:54:57;;;;;;;;;;;10.60;99.90;;;;;;5037184;28;19960;-80
2022/01/01 02:57:23;;;;;;;;;;;10.60;99.90;;;;;;5054683;28;19999;-80
2022/01/01 02:59:48;;;;;;;;;;;10.60;99.90;;;;;;5037022;28;20224;-82
2022/01/01 03:02:14;;;;;;;;;;;10.60;99.90;;;;;;5036948;28;19997;-79
2022/01/01 03:04:40;;;;;;;;;;;10.60;99.90;;;;;;5054589;28;19919;-80
2022/01/01 03:07:06;;;;;;;;;;;10.60;99.90;;;;;;5054547;28;19913;-80
2022/01/01 03:09:35;;;;;;;;;;;10.60;99.90;;;;;;5037079;28;19963;-81
2022/01/01 03:12:04;;;;;;;;;;;10.60;99.90;;;;;;5054562;28;20003;-81
2022/01/01 03:14:30;;;;;;;;;;;10.70;99.90;;;;;;5036846;28;19926;-82
2022/01/01 03:16:56;;;;;;;;;;;10.80;99.90;;;;;;5054618;28;19916;-81
2022/01/01 03:19:22;;;;;;;;;;;10.90;99.90;;;;;;5037327;28;19913;-79
2022/01/01 03:21:48;;;;;;;;;;;10.90;99.90;;;;;;5054686;28;19913;-81
2022/01/01 03:24:14;;;;;;;;;;;10.90;99.90;;;;;;5036759;28;20213;-81
2022/01/01 03:26:40;;;;;;;;;;;10.90;99.90;;;;;;5036655;28;19952;-81
2022/01/01 03:29:06;;;;;;;;;;;11.00;99.90;;;;;;5036685;28;20011;-81
2022/01/01 03:31:31;;;;;;;;;;;11.00;99.90;;;;;;5056150;28;20303;-80
2022/01/01 03:33:58;;;;;;;;;;;11.00;99.90;;;;;;5058198;28;19913;-80
2022/01/01 03:36:27;;;;;;;;;;;11.00;99.90;;;;;;5057919;28;19916;-80
2022/01/01 03:38:52;;;;;;;;;;;11.00;99.90;;;;;;5039862;28;20327;-82
2022/01/01 03:41:18;;;;;;;;;;;11.00;99.90;;;;;;5020287;28;19917;-79
2022/01/01 03:43:44;;;;;;;;;;;11.00;99.90;;;;;;5020509;28;20312;-81
2022/01/01 03:46:09;;;;;;;;;;;11.00;99.90;;;;;;5037665;28;20316;-80
2022/01/01 03:48:35;;;;;;;;;;;11.00;99.90;;;;;;5020331;28;19913;-80
2022/01/01 03:51:01;;;;;;;;;;;11.10;99.90;;;;;;5038011;28;19916;-80
2022/01/01 03:53:26;;;;;;;;;;;11.10;99.90;;;;;;5020299;28;20338;-81
2022/01/01 03:55:52;;;;;;;;;;;11.10;99.90;;;;;;5020040;28;19956;-79
2022/01/01 03:58:19;;;;;;;;;;;11.10;99.90;;;;;;5019941;28;19922;-81
2022/01/01 04:00:44;;;;;;;;;;;11.10;99.90;;;;;;5020210;28;20020;-80
2022/01/01 04:03:11;;;;;;;;;;;11.20;99.90;;;;;;5020076;28;20011;-81
2022/01/01 04:05:40;;;;;;;;;;;11.20;99.90;;;;;;5037451;28;19917;-80
2022/01/01 04:08:05;;;;;;;;;;;11.20;99.90;;;;;;5037602;28;19974;-80
2022/01/01 04:10:31;;;;;;;;;;;11.20;99.90;;;;;;5037440;28;20268;-80
2022/01/01 04:12:58;;;;;;;;;;;11.20;99.90;;;;;;5036181;28;19909;-79
2022/01/01 04:15:24;;;;;;;;;;;11.20;99.90;;;;;;5019646;28;20231;-79
2022/01/01 04:17:50;;;;;;;;;;;11.30;99.90;;;;;;5019752;28;20000;-80
2022/01/01 04:20:15;;;;;;;;;;;11.20;99.90;;;;;;5037260;28;20359;-78
2022/01/01 04:22:41;;;;;;;;;;;11.20;99.90;;;;;;5037353;28;19921;-79
2022/01/01 04:25:07;;;;;;;;;;;11.20;99.90;;;;;;5019527;28;19924;-79
2022/01/01 04:27:32;;;;;;;;;;;11.20;99.90;;;;;;5019540;28;20301;-80
2022/01/01 04:29:58;;;;;;;;;;;11.20;99.90;;;;;;5037319;28;19920;-80
2022/01/01 04:32:23;;;;;;;;;;;11.20;99.90;;;;;;5036192;28;19948;-81
2022/01/01 04:34:49;;;;;;;;;;;11.20;99.90;;;;;;5037368;28;19913;-79
2022/01/01 04:37:17;;;;;;;;;;;11.20;99.90;;;;;;5037051;28;20312;-80
2022/01/01 04:39:42;;;;;;;;;;;11.20;99.90;;;;;;5019659;28;20369;-80
2022/01/01 04:42:08;;;;;;;;;;;11.20;99.90;;;;;;5046612;28;20031;-80
2022/01/01 04:44:34;;;;;;;;;;;11.20;99.90;;;;;;5056355;28;20208;-80
2022/01/01 04:46:59;;;;;;;;;;;11.20;99.90;;;;;;5056762;28;19963;-79
2022/01/01 04:49:25;;;;;;;;;;;11.20;99.90;;;;;;5056652;28;19916;-80
2022/01/01 04:51:50;;;;;;;;;;;11.20;99.90;;;;;;5056628;28;19913;-79
2022/01/01 04:54:17;;;;;;;;;;;11.20;99.90;;;;;;5055524;28;19936;-80
2022/01/01 04:56:47;;;;;;;;;;;11.20;99.90;;;;;;5056480;28;19908;-80
2022/01/01 04:59:13;;;;;;;;;;;11.20;99.90;;;;;;5055544;28;20219;-80
2022/01/01 05:01:40;;;;;;;;;;;11.20;99.90;;;;;;5038715;28;19919;-80
2022/01/01 05:04:06;;;;;;;;;;;11.20;99.90;;;;;;5038419;28;20011;-80
2022/01/01 05:06:31;;;;;;;;;;;11.30;99.90;;;;;;5056260;28;19996;-81
2022/01/01 05:08:57;;;;;;;;;;;11.30;99.90;;;;;;5055116;28;20003;-79
2022/01/01 05:11:22;;;;;;;;;;;11.20;99.90;;;;;;5056241;28;19909;-79
2022/01/01 05:13:48;;;;;;;;;;;11.20;99.90;;;;;;5055197;28;19913;-79
2022/01/01 05:16:18;;;;;;;;;;;11.20;99.90;;;;;;5038127;28;19944;-78
2022/01/01 05:18:44;;;;;;;;;;;11.20;99.90;;;;;;5055099;28;19944;-78
2022/01/01 05:21:10;;;;;;;;;;;11.20;99.90;;;;;;5056081;28;19909;-79
2022/01/01 05:23:36;;;;;;;;;;;11.20;99.90;;;;;;5055259;28;19967;-79
2022/01/01 05:26:01;;;;;;;;;;;11.10;99.90;;;;;;5055578;28;19959;-80
2022/01/01 05:28:27;;;;;;;;;;;11.10;99.90;;;;;;5055979;28;20259;-79
2022/01/01 05:30:52;;;;;;;;;;;11.10;99.90;;;;;;5055829;28;20004;-79
2022/01/01 05:33:18;;;;;;;;;;;11.00;99.90;;;;;;5056148;28;19920;-80
2022/01/01 05:35:43;;;;;;;;;;;11.00;99.90;;;;;;5037819;28;19909;-79
2022/01/01 05:38:09;;;;;;;;;;;10.90;99.90;;;;;;5055772;28;19913;-79
2022/01/01 05:40:34;;;;;;;;;;;10.90;99.90;;;;;;5055578;28;19916;-79
2022/01/01 05:43:00;;;;;;;;;;;10.80;99.90;;;;;;5055087;28;19960;-80
2022/01/01 05:45:26;;;;;;;;;;;10.80;99.90;;;;;;5055346;28;20007;-80
2022/01/01 05:47:51;;;;;;;;;;;10.70;99.90;;;;;;5037914;28;19913;-79
2022/01/01 05:50:17;;;;;;;;;;;10.60;99.90;;;;;;5037917;28;19909;-79
2022/01/01 05:52:43;;;;;;;;;;;10.60;99.90;;;;;;5055615;28;19919;-80
2022/01/01 05:55:09;;;;;;;;;;;10.50;99.90;;;;;;5055078;28;19982;-78
2022/01/01 05:57:34;;;;;;;;;;;10.50;99.90;;;;;;5054598;28;20015;-79
2022/01/01 06:00:00;;;;;;;;;;;10.50;99.90;;;;;;5037541;28;19924;-79
2022/01/01 06:02:25;;;;;;;;;;;10.40;99.90;;;;;;5037761;28;19920;-79
2022/01/01 06:04:51;;;;;;;;;;;10.30;99.90;;;;;;5055218;28;19917;-79
2022/01/01 06:07:16;;;;;;;;;;;10.30;99.90;;;;;;5055167;28;19913;-79
2022/01/01 06:09:42;;;;;;;;;;;10.30;99.90;;;;;;5055274;28;19916;-80
2022/01/01 06:12:08;;;;;;;;;;;10.20;99.90;;;;;;5055304;28;19982;-79
2022/01/01 06:14:33;;;;;;;;;;;10.20;99.90;;;;;;5055195;28;19959;-78
2022/01/01 06:16:59;;;;;;;;;;;10.20;99.90;;;;;;5055055;28;20366;-78
2022/01/01 06:19:25;;;;;;;;;;;10.20;99.90;;;;;;5037477;28;20003;-80
2022/01/01 06:21:50;;;;;;;;;;;10.20;99.90;;;;;;5054971;28;19994;-79
2022/01/01 06:24:16;;;;;;;;;;;10.20;99.90;;;;;;5037312;28;19955;-79
2022/01/01 06:26:41;;;;;;;;;;;10.20;99.90;;;;;;5037178;28;19913;-79
2022/01/01 06:29:07;;;;;;;;;;;10.20;99.90;;;;;;5037359;28;19909;-80
2022/01/01 06:31:32;;;;;;;;;;;10.30;99.90;;;;;;5037152;28;20292;-80
2022/01/01 06:33:58;;;;;;;;;;;10.30;99.90;;;;;;5054927;28;19935;-80
2022/01/01 06:36:23;;;;;;;;;;;10.40;99.90;;;;;;5037076;28;19966;-80
2022/01/01 06:38:49;;;;;;;;;;;10.40;99.90;;;;;;5037120;28;19917;-81
2022/01/01 06:41:16;;;;;;;;;;;10.40;99.90;;;;;;5036996;28;19952;-81
2022/01/01 06:43:41;;;;;;;;;;;10.40;99.90;;;;;;5054992;28;19916;-79
2022/01/01 06:46:07;;;;;;;;;;;10.50;99.90;;;;;;5054697;28;19920;-81
2022/01/01 06:48:34;;;;;;;;;;;10.40;99.90;;;;;;5054990;28;20211;-81
2022/01/01 06:51:00;;;;;;;;;;;10.50;99.90;;;;;;5037160;28;19913;-80
2022/01/01 06:53:26;;;;;;;;;;;10.50;99.90;;;;;;5054944;28;19912;-80
2022/01/01 06:55:52;;;;;;;;;;;10.60;99.90;;;;;;5036844;28;20204;-80
2022/01/01 06:58:17;;;;;;;;;;;10.60;99.90;;;;;;5054796;28;19920;-81
2022/01/01 07:00:44;;;;;;;;;;;10.60;99.90;;;;;;5037023;28;19909;-80
2022/01/01 07:03:10;;;;;;;;;;;10.60;99.90;;;;;;5054384;28;19924;-79
2022/01/01 07:05:35;;;;;;;;;;;10.60;99.90;;;;;;5054492;28;20259;-80
2022/01/01 07:08:01;;;;;;;;;;;10.60;99.90;;;;;;5040957;28;19913;-79
2022/01/01 07:10:27;;;;;;;;;;;10.70;99.90;;;;;;5058403;28;19908;-80
2022/01/01 07:12:52;;;;;;;;;;;10.70;99.90;;;;;;5058534;28;19940;-80
2022/01/01 07:15:18;;;;;;;;;;;10.70;99.90;;;;;;5058520;28;19913;-80
2022/01/01 07:17:43;;;;;;;;;;;10.70;99.90;;;;;;5058386;28;20300;-81
2022/01/01 07:20:09;;;;;;;;;;;10.70;99.90;;;;;;5058326;28;20068;-81
2022/01/01 07:22:42;;;;;;;;;;;10.60;99.90;;;;;;5058263;28;20299;-79
2022/01/01 07:25:09;;;;;;;;;;;10.60;99.90;;;;;;5058224;28;19919;-80
2022/01/01 07:27:35;;;;;;;;;;;10.60;99.90;;;;;;5040581;28;20216;-80
2022/01/01 07:30:00;;;;;;;;;;;10.60;99.90;;;;;;5058147;28;19913;-79
2022/01/01 07:32:26;;;;;;;;;;;10.60;99.90;;;;;;5040425;28;20300;-79
2022/01/01 07:34:52;;;;;;;;;;;10.60;99.90;;;;;;5040343;28;19954;-79
2022/01/01 07:37:17;;;;;;;;;;;10.60;99.90;;;;;;5058000;28;19909;-79
2022/01/01 07:39:43;;;;;;;;;;;10.50;99.90;;;;;;5057989;28;20262;-79
2022/01/01 07:42:08;;;;;;;;;;;10.50;99.90;;;;;;5029803;28;19928;-79
2022/01/01 07:44:34;;;;;;;;;;;10.50;99.90;;;;;;5020497;28;19916;-80
2022/01/01 07:47:00;;;;;;;;;;;10.40;99.90;;;;;;5020405;28;19909;-79
2022/01/01 07:49:26;;;;;;;;;;;10.40;99.90;;;;;;5038166;28;19913;-79
2022/01/01 07:51:52;;;;;;;;;;;10.40;99.90;;;;;;5038119;28;19915;-79
2022/01/01 07:54:17;;;;;;;;;;;10.30;99.90;;;;;;5020583;28;19909;-79
2022/01/01 07:56:43;;;;;;;;;;;10.30;99.90;;;;;;5020261;28;19909;-79
2022/01/01 07:59:08;;;;;;;;;;;10.30;99.90;;;;;;5020189;28;19952;-80
2022/01/01 08:01:35;;;;;;;;;;;10.40;99.90;;;;;;5020275;28;20308;-79
2022/01/01 08:04:02;;;;;;;;;;;10.40;99.90;;;;;;5020296;28;19961;-79
2022/01/01 08:06:30;;;;;;;;;;;10.40;99.90;;;;;;5037584;28;20000;-79
2022/01/01 08:08:59;;;;;;;;;;;10.40;99.90;;;;;;5037436;28;19919;-79
2022/01/01 08:11:25;;;;;;;;;;;10.50;99.90;;;;;;5036218;28;19963;-79
2022/01/01 08:13:51;;;;;;;;;;;10.60;99.90;;;;;;5016201;28;20288;-78
2022/01/01 08:16:16;;;;;;;;;;;10.60;99.90;;;;;;5036656;28;20004;-78
2022/01/01 08:18:42;;;;;;;;;;;10.60;99.90;;;;;;5036499;28;19940;-79
2022/01/01 08:21:08;;;;;;;;;;;10.70;99.90;;;;;;5036872;28;19976;-79
2022/01/01 08:23:33;;;;;;;;;;;10.60;99.90;;;;;;5037269;28;19923;-79
2022/01/01 08:26:06;;;;;;;;;;;10.70;99.90;;;;;;5017362;28;19928;-79
2022/01/01 08:28:32;;;;;;;;;;;10.70;99.90;;;;;;5036216;28;19956;-79
2022/01/01 08:30:58;;;;;;;;;;;10.70;99.90;;;;;;5036511;28;19945;-79
2022/01/01 08:33:24;;;;;;;;;;;10.70;99.90;;;;;;5018613;28;19932;-79
2022/01/01 08:35:49;;;;;;;;;;;10.80;99.90;;;;;;5035132;28;19924;-79
2022/01/01 08:38:15;;;;;;;;;;;10.80;99.90;;;;;;5035225;28;19909;-79
2022/01/01 08:40:41;;;;;;;;;;;10.80;99.90;;;;;;5035646;28;19917;-79
2022/01/01 08:43:06;;;;;;;;;;;10.90;99.90;;;;;;5030984;28;19940;-79
2022/01/01 08:45:33;;;;;;;;;;;10.90;99.90;;;;;;5055247;28;19921;-79
2022/01/01 08:47:59;;;;;;;;;;;10.90;99.90;;;;;;5035494;28;19917;-79
2022/01/01 08:50:25;;;;;;;;;;;10.90;99.90;;;;;;5055081;28;19916;-79
2022/01/01 08:52:50;;;;;;;;;;;11.00;99.90;;;;;;5036822;28;19917;-79
2022/01/01 08:55:16;;;;;;;;;;;11.00;99.90;;;;;;5055169;28;19951;-79
2022/01/01 08:57:42;;;;;;;;;;;11.00;99.90;;;;;;5054723;28;20229;-79
2022/01/01 09:00:09;;;;;;;;;;;11.10;99.90;;;;;;5054885;28;19912;-80
2022/01/01 09:02:35;;;;;;;;;;;11.10;99.90;;;;;;5037030;28;20347;-81
2022/01/01 09:05:02;;;;;;;;;;;11.10;99.90;;;;;;5054601;28;19940;-80
2022/01/01 09:07:29;;;;;;;;;;;11.10;99.90;;;;;;5023875;28;19921;-79
2022/01/01 09:09:58;;;;;;;;;;;11.10;99.90;;;;;;5041536;28;19939;-79
2022/01/01 09:12:25;;;;;;;;;;;11.10;99.90;;;;;;5053971;28;19913;-81
2022/01/01 09:14:50;;;;;;;;;;;11.20;99.90;;;;;;5036841;28;19928;-80
2022/01/01 09:17:16;;;;;;;;;;;11.20;99.90;;;;;;5036324;28;19912;-80
2022/01/01 09:19:42;;;;;;;;;;;11.20;99.90;;;;;;5036270;28;19909;-79
2022/01/01 09:22:07;;;;;;;;;;;11.30;99.90;;;;;;5035163;28;19917;-79
2022/01/01 09:24:34;;;;;;;;;;;11.30;99.90;;;;;;5035901;28;20012;-80
2022/01/01 09:26:59;;;;;;;;;;;11.20;99.90;;;;;;5053325;28;20219;-81
2022/01/01 09:29:25;;;;;;;;;;;11.30;99.90;;;;;;5031266;28;19909;-81
2022/01/01 09:31:50;;;;;;;;;;;11.30;99.90;;;;;;5054588;28;19917;-81
2022/01/01 09:34:16;;;;;;;;;;;11.30;99.90;;;;;;5036455;28;19913;-79
2022/01/01 09:36:41;;;;;;;;;;;11.30;99.90;;;;;;5054248;28;19956;-80
2022/01/01 09:39:07;;;;;;;;;;;11.30;99.90;;;;;;5037293;28;20319;-81
2022/01/01 09:41:33;;;;;;;;;;;11.30;99.90;;;;;;5037103;28;19966;-81
2022/01/01 09:43:59;;;;;;;;;;;11.30;99.90;;;;;;5054781;28;19917;-81
2022/01/01 09:46:27;;;;;;;;;;;11.30;99.90;;;;;;5037161;28;19913;-80
2022/01/01 09:48:53;;;;;;;;;;;11.30;99.90;;;;;;5036983;28;19909;-80
2022/01/01 09:51:20;;;;;;;;;;;11.30;99.90;;;;;;5037207;28;19923;-81
2022/01/01 09:53:46;;;;;;;;;;;11.30;99.90;;;;;;5054432;28;20016;-82
2022/01/01 09:56:12;;;;;;;;;;;11.40;99.90;;;;;;5036611;28;19913;-79
2022/01/01 09:58:38;;;;;;;;;;;11.40;99.90;;;;;;5053974;28;20311;-80
2022/01/01 10:01:06;;;;;;;;;;;11.40;99.90;;;;;;5053828;28;19959;-81
2022/01/01 10:03:42;;;;;;;;;;;11.40;99.90;;;;;;5053749;28;19966;-79
2022/01/01 10:06:15;;;;;;;;;;;11.50;99.90;;;;;;5053765;28;19959;-80
2022/01/01 10:08:41;;;;;;;;;;;11.50;99.90;;;;;;5053572;28;19916;-79
2022/01/01 10:11:08;;;;;;;;;;;11.50;99.90;;;;;;5036197;28;19943;-80
2022/01/01 10:13:36;;;;;;;;;;;11.50;99.90;;;;;;5035773;28;20209;-80
2022/01/01 10:16:03;;;;;;;;;;;11.50;99.90;;;;;;5054270;28;19996;-80
2022/01/01 10:18:33;;;;;;;;;;;11.50;99.90;;;;;;5054399;28;20266;-80
2022/01/01 10:21:00;;;;;;;;;;;11.50;99.90;;;;;;5036722;28;19935;-82
2022/01/01 10:23:29;;;;;;;;;;;11.50;99.90;;;;;;5054474;28;19912;-79
2022/01/01 10:29:16;;;;;;;;;;;11.50;99.90;;;;;;5052968;28;19916;-80
2022/01/01 10:31:56;;;;;;;;;;;11.50;99.90;;;;;;5035439;28;19909;-80
2022/01/01 10:34:24;;;;;;;;;;;11.50;99.90;;;;;;5052944;28;20000;-81
2022/01/01 10:36:52;;;;;;;;;;;11.50;99.90;;;;;;5019375;28;20288;-80
2022/01/01 10:39:18;;;;;;;;;;;11.50;99.90;;;;;;5035655;28;19909;-80
2022/01/01 10:41:45;;;;;;;;;;;11.50;99.90;;;;;;5055158;28;19952;-79
2022/01/01 10:44:12;;;;;;;;;;;11.50;99.90;;;;;;5057399;28;19943;-79
2022/01/01 10:46:38;;;;;;;;;;;11.50;99.90;;;;;;5057429;28;19913;-79
2022/01/01 10:52:13;;;;;;;;;;;11.50;99.90;;;;;;5044697;28;19913;-79
2022/01/01 10:54:51;;;;;;;;;;;11.50;99.90;;;;;;5039344;28;19908;-80
2022/01/01 10:57:20;;;;;;;;;;;11.60;99.90;;;;;;5057189;28;19917;-78
2022/01/01 10:59:46;;;;;;;;;;;11.70;99.90;;;;;;5057452;28;19967;-79
2022/01/01 11:02:12;;;;;;;;;;;11.80;99.90;;;;;;5057409;28;19913;-79
2022/01/01 11:04:37;;;;;;;;;;;11.90;99.90;;;;;;5057528;28;19908;-79
2022/01/01 11:07:06;;;;;;;;;;;12.00;99.90;;;;;;5057389;28;20011;-79
2022/01/01 11:09:32;;;;;;;;;;;12.00;99.90;;;;;;5039411;28;19978;-77
2022/01/01 11:12:02;;;;;;;;;;;12.00;99.90;;;;;;5039560;28;20338;-78
2022/01/01 11:14:35;;;;;;;;;;;12.10;99.90;;;;;;5050395;28;19954;-81
2022/01/01 11:17:01;;;;;;;;;;;12.10;99.90;;;;;;5057184;28;19908;-81
2022/01/01 11:19:26;;;;;;;;;;;12.10;99.90;;;;;;5056783;28;19970;-79
2022/01/01 11:21:55;;;;;;;;;;;12.10;99.90;;;;;;5039411;28;20359;-80
2022/01/01 11:24:21;;;;;;;;;;;12.10;99.90;;;;;;5039160;28;19924;-80
2022/01/01 11:26:49;;;;;;;;;;;12.10;99.90;;;;;;5057342;28;19916;-81
2022/01/01 11:29:15;;;;;;;;;;;12.10;99.90;;;;;;5056979;28;19920;-80
2022/01/01 11:31:42;;;;;;;;;;;12.10;99.90;;;;;;5039619;28;19921;-80
2022/01/01 11:34:08;;;;;;;;;;;12.10;99.90;;;;;;5057284;28;19958;-80
2022/01/01 11:36:33;;;;;;;;;;;12.10;99.90;;;;;;5036577;28;20261;-80
2022/01/01 11:39:03;;;;;;;;;;;12.10;99.90;;;;;;5056965;28;19995;-80
2022/01/01 11:41:39;;;;;;;;;;;12.00;99.90;;;;;;5039200;28;19917;-81
2022/01/01 11:44:24;;;;;;;;;;;12.00;99.90;;;;;;5035170;28;19917;-79
2022/01/01 11:47:00;;;;;;;;;;;12.10;99.90;;;;;;5039229;28;20308;-79
2022/01/01 11:49:27;;;;;;;;;;;12.10;99.90;;;;;;5053528;28;19979;-79
2022/01/01 11:51:54;;;;;;;;;;;12.10;99.90;;;;;;5019020;28;19917;-79
2022/01/01 11:54:21;;;;;;;;;;;12.10;99.90;;;;;;5056841;28;19912;-80
2022/01/01 11:56:47;;;;;;;;;;;12.10;99.90;;;;;;5039136;28;20308;-80
2022/01/01 11:59:20;;;;;;;;;;;12.10;99.90;;;;;;5036088;28;20006;-80
2022/01/01 12:01:47;;;;;;;;;;;12.20;99.90;;;;;;5057048;28;19952;-81
2022/01/01 12:04:21;;;;;;;;;;;12.30;99.90;;;;;;5039063;28;19920;-80
2022/01/01 12:06:51;;;;;;;;;;;12.40;99.90;;;;;;5056842;28;19912;-81
2022/01/01 12:09:17;;;;;;;;;;;12.60;99.90;;;;;;5050778;28;20047;-81
2022/01/01 12:11:49;;;;;;;;;;;12.70;99.90;;;;;;5056649;28;19946;-80
2022/01/01 12:14:21;;;;;;;;;;;12.70;99.90;;;;;;5036065;28;19917;-80
2022/01/01 12:16:48;;;;;;;;;;;12.80;99.90;;;;;;5059427;28;19909;-79
2022/01/01 12:19:14;;;;;;;;;;;12.80;99.90;;;;;;5056536;28;20354;-79
2022/01/01 12:21:40;;;;;;;;;;;12.90;99.90;;;;;;5056697;28;19909;-80
2022/01/01 12:24:08;;;;;;;;;;;12.90;99.90;;;;;;5056402;28;19982;-80
2022/01/01 12:26:34;;;;;;;;;;;13.00;99.90;;;;;;5038705;28;20007;-78
2022/01/01 12:29:00;;;;;;;;;;;13.10;99.90;;;;;;5056401;28;19955;-80
2022/01/01 12:31:28;;;;;;;;;;;13.20;99.90;;;;;;5035948;28;20316;-80
2022/01/01 12:33:59;;;;;;;;;;;13.20;99.90;;;;;;5056294;28;19940;-80
2022/01/01 12:36:31;;;;;;;;;;;13.20;99.90;;;;;;5038512;28;19909;-80
2022/01/01 12:38:58;;;;;;;;;;;13.10;99.90;;;;;;5030355;28;19913;-80
2022/01/01 12:41:32;;;;;;;;;;;13.10;99.90;;;;;;5054855;28;19924;-82
2022/01/01 12:43:59;;;;;;;;;;;13.10;99.90;;;;;;5033906;28;19924;-81
2022/01/01 12:46:26;;;;;;;;;;;13.10;99.90;;;;;;5055899;28;19935;-80
2022/01/01 12:48:52;;;;;;;;;;;13.00;99.90;;;;;;5038245;28;20007;-81
2022/01/01 12:51:20;;;;;;;;;;;13.00;99.90;;;;;;5056093;28;20308;-80
2022/01/01 12:53:47;;;;;;;;;;;13.00;99.90;;;;;;5041125;28;19962;-80
2022/01/01 12:56:13;;;;;;;;;;;13.00;99.90;;;;;;5075497;28;19916;-79
2022/01/01 12:58:47;;;;;;;;;;;12.90;99.90;;;;;;5038599;28;19927;-81
2022/01/01 13:01:17;;;;;;;;;;;12.80;99.90;;;;;;5070155;28;20316;-80
2022/01/01 13:03:44;;;;;;;;;;;12.80;99.90;;;;;;5074549;28;19943;-80
2022/01/01 13:06:10;;;;;;;;;;;12.80;99.90;;;;;;5041024;28;19920;-80
2022/01/01 13:08:39;;;;;;;;;;;12.70;99.90;;;;;;5037963;28;19909;-79
2022/01/01 13:11:05;;;;;;;;;;;12.70;99.90;;;;;;5037835;28;20311;-80
2022/01/01 13:13:30;;;;;;;;;;;12.60;99.90;;;;;;5034899;28;19999;-80
2022/01/01 13:15:56;;;;;;;;;;;12.60;99.90;;;;;;5055319;28;20228;-81
2022/01/01 13:18:26;;;;;;;;;;;12.60;99.90;;;;;;5037593;28;20223;-81
2022/01/01 13:20:52;;;;;;;;;;;12.60;99.90;;;;;;5037459;28;19913;-81
2022/01/01 13:23:17;;;;;;;;;;;12.60;99.90;;;;;;5055379;28;20292;-79
2022/01/01 13:25:44;;;;;;;;;;;12.60;99.90;;;;;;5055006;28;20383;-80
2022/01/01 13:28:13;;;;;;;;;;;12.50;99.90;;;;;;5037524;28;19912;-80
2022/01/01 13:30:39;;;;;;;;;;;12.50;99.90;;;;;;5034866;28;19917;-80
2022/01/01 13:33:04;;;;;;;;;;;12.50;99.90;;;;;;5038213;28;19972;-80
2022/01/01 13:37:55;;;;;;;;;;;12.50;99.90;;;;;;5055950;28;20296;-78
2022/01/01 13:40:21;;;;;;;;;;;12.50;99.90;;;;;;5055667;28;20295;-80
2022/01/01 13:42:47;;;;;;;;;;;12.60;99.90;;;;;;5037855;28;19921;-79
2022/01/01 13:45:13;;;;;;;;;;;12.60;99.90;;;;;;5055603;28;19912;-79
2022/01/01 13:47:39;;;;;;;;;;;12.60;99.90;;;;;;5055745;28;19960;-80
2022/01/01 13:50:17;;;;;;;;;;;12.60;99.90;;;;;;5055376;28;19913;-80
2022/01/01 13:52:51;;;;;;;;;;;12.70;99.90;;;;;;5037708;28;20330;-80
2022/01/01 13:55:21;;;;;;;;;;;12.60;99.90;;;;;;5055706;28;19975;-79
2022/01/01 13:57:55;;;;;;;;;;;12.60;99.90;;;;;;5037808;28;19913;-79
2022/01/01 14:00:20;;;;;;;;;;;12.50;99.90;;;;;;5037794;28;20296;-79
2022/01/01 14:02:46;;;;;;;;;;;12.50;99.90;;;;;;5037090;28;19939;-80
2022/01/01 14:05:16;;;;;;;;;;;12.50;99.90;;;;;;5036827;28;19920;-79
2022/01/01 14:07:41;;;;;;;;;;;12.40;99.90;;;;;;5036900;28;21632;-79
2022/01/01 14:10:20;;;;;;;;;;;12.40;99.90;;;;;;5051875;28;19909;-81
2022/01/01 14:12:50;;;;;;;;;;;12.40;99.90;;;;;;5036369;28;20300;-81
2022/01/01 14:15:17;;;;;;;;;;;12.30;99.90;;;;;;5054114;28;19924;-80
2022/01/01 14:17:59;;;;;;;;;;;12.30;99.90;;;;;;5054278;28;19917;-78
2022/01/01 14:20:29;;;;;;;;;;;12.30;99.90;;;;;;5034795;28;20031;-79
2022/01/01 14:22:55;;;;;;;;;;;12.30;99.90;;;;;;5037484;28;19959;-80
2022/01/01 14:25:21;;;;;;;;;;;12.30;99.90;;;;;;5037499;28;19952;-80
2022/01/01 14:27:46;;;;;;;;;;;12.30;99.90;;;;;;5055338;28;20035;-79